Time;durP1;ratioP1;P1;durP2;ratioP2;P2;SDS_P1;SDS_P2;PMS_P1;PMS_P2;Temp;Humidity;BMP_temperature;BMP_pressure;BME280_temperature;BME280_humidity;BME280_pressure;Samples;Min_cycle;Max_cycle;Signal;HPM_P1;HPM_P2
2022/04/04 00:00:45;;;;;;;8.4;6.4;;;;;;;0.87;75.72461;939.4011;;;;
2022/04/04 00:03:13;;;;;;;6.8;6.1;;;;;;;0.85;75.97754;939.3781;;;;
2022/04/04 00:05:38;;;;;;;8.6;6.3;;;;;;;0.86;76.2041;939.3391;;;;
2022/04/04 00:08:05;;;;;;;7.5;6.2;;;;;;;0.9;75.06152;939.3524;;;;
2022/04/04 00:12:56;;;;;;;8.3;6.1;;;;;;;0.87;76.30664;939.2484;;;;
2022/04/04 00:15:21;;;;;;;9.6;6.5;;;;;;;0.91;76.49121;939.2809;;;;
2022/04/04 00:17:48;;;;;;;8.6;7;;;;;;;0.9;75.95605;939.2977;;;;
2022/04/04 00:20:14;;;;;;;7.3;6.2;;;;;;;0.74;76.2041;939.3438;;;;
2022/04/04 00:22:43;;;;;;;7.7;6.6;;;;;;;0.58;76.00684;939.3218;;;;
2022/04/04 00:25:12;;;;;;;8.3;6.7;;;;;;;0.41;77.69531;939.2902;;;;
2022/04/04 00:27:37;;;;;;;8.6;6.5;;;;;;;0.54;77.73145;939.3129;;;;
2022/04/04 00:30:03;;;;;;;7.9;6.3;;;;;;;0.81;78.16992;939.1844;;;;
2022/04/04 00:32:28;;;;;;;8.2;6.9;;;;;;;0.85;78.6123;939.2136;;;;
2022/04/04 00:34:54;;;;;;;7.6;6.7;;;;;;;0.86;78.39063;939.2626;;;;
2022/04/04 00:37:19;;;;;;;9;6.6;;;;;;;0.84;77.81836;939.2516;;;;
2022/04/04 00:39:46;;;;;;;8.4;6.7;;;;;;;0.96;77.53809;939.2297;;;;
2022/04/04 00:42:11;;;;;;;11;7;;;;;;;0.9;77.74023;939.1862;;;;
2022/04/04 00:44:37;;;;;;;7.8;6.3;;;;;;;1.1;75.99023;939.1987;;;;
2022/04/04 00:47:02;;;;;;;8;6.8;;;;;;;0.89;76.12012;939.1465;;;;
2022/04/04 00:49:28;;;;;;;9.3;6.7;;;;;;;0.86;75.60156;939.129;;;;
2022/04/04 00:51:55;;;;;;;8.4;6.4;;;;;;;0.82;75.69434;939.1306;;;;
2022/04/04 00:54:19;;;;;;;7.6;6.4;;;;;;;0.93;76.11523;939.1533;;;;
2022/04/04 00:56:47;;;;;;;8.1;6.7;;;;;;;0.74;76.96484;939.0948;;;;
2022/04/04 00:59:14;;;;;;;8;6.6;;;;;;;0.82;76.85645;939.0991;;;;
2022/04/04 01:01:37;;;;;;;7.8;6.9;;;;;;;0.85;77.08496;939.0775;;;;
2022/04/04 01:04:04;;;;;;;8.3;6.5;;;;;;;0.87;77.3877;939.0641;;;;
2022/04/04 01:06:29;;;;;;;8.4;7.3;;;;;;;0.85;77.41992;939.1189;;;;
2022/04/04 01:08:55;;;;;;;8.4;7.5;;;;;;;0.82;76.55469;939.0933;;;;
2022/04/04 01:11:20;;;;;;;9.4;7.3;;;;;;;0.86;75.50098;939.046;;;;
2022/04/04 01:13:46;;;;;;;8.7;7.5;;;;;;;0.89;75.13965;939.0159;;;;
2022/04/04 01:16:11;;;;;;;10.3;8;;;;;;;0.95;75.18262;938.9088;;;;
2022/04/04 01:18:38;;;;;;;8;7;;;;;;;0.91;74.73926;938.8373;;;;
2022/04/04 01:21:03;;;;;;;8;7.2;;;;;;;0.98;74.97461;938.8672;;;;
2022/04/04 01:23:30;;;;;;;9.5;7.7;;;;;;;1.02;74.83789;938.8348;;;;
2022/04/04 01:25:56;;;;;;;10.3;8.1;;;;;;;1.12;74.94434;938.7963;;;;
2022/04/04 01:28:22;;;;;;;8.4;7.4;;;;;;;1.15;74.94043;938.8557;;;;
2022/04/04 01:30:47;;;;;;;9.4;7.6;;;;;;;1.16;75.39844;938.8342;;;;
2022/04/04 01:33:12;;;;;;;9.1;7.9;;;;;;;1.04;76.53711;938.8998;;;;
2022/04/04 01:35:39;;;;;;;10.3;8.2;;;;;;;1.02;77.61719;938.8995;;;;
2022/04/04 01:38:05;;;;;;;9.7;8.2;;;;;;;1.03;77.75391;938.7935;;;;
2022/04/04 01:40:32;;;;;;;9.3;8.3;;;;;;;1.05;77.86914;938.8345;;;;
2022/04/04 01:42:56;;;;;;;9.5;7.9;;;;;;;0.9;77.77539;938.7709;;;;
2022/04/04 01:46:23;;;;;;;9.2;8.2;;;;;;;0.89;77.50391;938.7869;;;;
2022/04/04 01:47:47;;;;;;;9.7;7.7;;;;;;;0.89;77.48145;938.7743;;;;
2022/04/04 01:50:18;;;;;;;10.1;8.7;;;;;;;0.94;77.00977;938.7805;;;;
2022/04/04 01:53:25;;;;;;;10.8;8.5;;;;;;;0.93;77.17578;938.7834;;;;
2022/04/04 01:55:08;;;;;;;9.8;7.9;;;;;;;0.91;77.58691;938.7018;;;;
2022/04/04 01:57:36;;;;;;;10.2;8.3;;;;;;;0.91;77.84277;938.7321;;;;
2022/04/04 02:00:03;;;;;;;10.4;8.3;;;;;;;0.96;76.94629;938.6958;;;;
2022/04/04 02:02:28;;;;;;;10.5;7.8;;;;;;;0.89;76.91406;938.7542;;;;
2022/04/04 02:04:56;;;;;;;9.4;8.4;;;;;;;0.85;77.12891;938.7442;;;;
2022/04/04 02:07:21;;;;;;;10.5;8.5;;;;;;;0.8;77.66602;938.7363;;;;
2022/04/04 02:09:46;;;;;;;10.9;8.3;;;;;;;0.91;77.58594;938.5981;;;;
2022/04/04 02:12:12;;;;;;;15;8.4;;;;;;;0.92;77.76563;938.6478;;;;
2022/04/04 02:14:38;;;;;;;10.4;8.5;;;;;;;0.86;77.83203;938.6161;;;;
2022/04/04 02:17:03;;;;;;;10.3;8.6;;;;;;;0.84;77.8291;938.6425;;;;
2022/04/04 02:19:30;;;;;;;11;8.9;;;;;;;0.82;78.32813;938.6181;;;;
2022/04/04 02:21:55;;;;;;;12.1;8.8;;;;;;;0.78;78.07617;938.6124;;;;
2022/04/04 02:24:22;;;;;;;10.2;9;;;;;;;0.82;77.79395;938.5863;;;;
2022/04/04 02:26:48;;;;;;;12.5;8.7;;;;;;;0.77;78.01855;938.615;;;;
2022/04/04 02:29:14;;;;;;;10.7;8.5;;;;;;;0.85;77.79883;938.5624;;;;
2022/04/04 02:31:39;;;;;;;9.1;7.8;;;;;;;0.81;78.25977;938.5214;;;;
2022/04/04 02:34:07;;;;;;;9.7;7.9;;;;;;;0.63;78.13672;938.5505;;;;
2022/04/04 02:36:32;;;;;;;9.8;7.8;;;;;;;0.52;78.17285;938.5656;;;;
2022/04/04 02:39:01;;;;;;;9.5;7.6;;;;;;;0.58;78.04883;938.5964;;;;
2022/04/04 02:41:25;;;;;;;8.8;7.6;;;;;;;0.54;77.18457;938.5389;;;;
2022/04/04 02:43:50;;;;;;;8.3;7;;;;;;;0.57;76.68652;938.5182;;;;
2022/04/04 02:46:18;;;;;;;10;7.4;;;;;;;0.55;76.49316;938.4972;;;;
2022/04/04 02:48:45;;;;;;;10.6;8.6;;;;;;;0.59;77.50488;938.3847;;;;
2022/04/04 02:51:10;;;;;;;11.1;9.3;;;;;;;0.65;77.83887;938.4501;;;;
2022/04/04 02:53:41;;;;;;;10.7;9.3;;;;;;;0.65;78.04004;938.4283;;;;
2022/04/04 02:58:31;;;;;;;11;9;;;;;;;0.61;78.11133;938.3449;;;;
2022/04/04 03:00:58;;;;;;;11.6;8.9;;;;;;;0.54;78.04199;938.2968;;;;
2022/04/04 03:03:23;;;;;;;10.6;8.5;;;;;;;0.51;78.68359;938.3536;;;;
2022/04/04 03:05:48;;;;;;;11.3;7.9;;;;;;;0.54;78.82422;938.3541;;;;
2022/04/04 03:08:14;;;;;;;9.4;7.9;;;;;;;0.66;79.01172;938.3097;;;;
2022/04/04 03:10:39;;;;;;;11;8.9;;;;;;;0.67;79.16992;938.1995;;;;
2022/04/04 03:13:05;;;;;;;9.7;8;;;;;;;0.23;78.55371;938.2123;;;;
2022/04/04 03:15:29;;;;;;;10.2;7.9;;;;;;;0.3;79.10059;938.1992;;;;
2022/04/04 03:17:55;;;;;;;11.6;8.9;;;;;;;0.33;78.16895;938.1825;;;;
2022/04/04 03:20:21;;;;;;;11.6;9;;;;;;;0.33;78.20215;938.2692;;;;
2022/04/04 03:22:48;;;;;;;11.4;8.8;;;;;;;0.22;78.71875;938.2332;;;;
2022/04/04 03:25:13;;;;;;;10.8;8.4;;;;;;;0.16;79.71191;938.2285;;;;
2022/04/04 03:27:40;;;;;;;9.7;8;;;;;;;0.1;79.63281;938.2208;;;;
2022/04/04 03:30:05;;;;;;;10.6;8.5;;;;;;;0.03;79.55273;938.305;;;;
2022/04/04 03:32:34;;;;;;;9.8;8.6;;;;;;;0.03;79.49512;938.2656;;;;
2022/04/04 03:35:06;;;;;;;11.9;8.9;;;;;;;0.03;79.38574;938.2449;;;;
2022/04/04 03:37:30;;;;;;;12.9;9;;;;;;;-0.04;79.46094;938.2245;;;;
2022/04/04 03:39:57;;;;;;;11.7;8.7;;;;;;;-0.06;79.55664;938.3097;;;;
2022/04/04 03:42:22;;;;;;;10.9;8.9;;;;;;;-0.18;80.44727;938.2834;;;;
2022/04/04 03:44:49;;;;;;;10.3;8.4;;;;;;;-0.19;80.03516;938.3137;;;;
2022/04/04 03:47:14;;;;;;;11;8.7;;;;;;;-0.2;80.08789;938.3049;;;;
2022/04/04 03:49:42;;;;;;;15.2;9.2;;;;;;;-0.1;80.35352;938.2523;;;;
2022/04/04 03:52:07;;;;;;;11.1;8.6;;;;;;;-0.23;80.59473;938.2079;;;;
2022/04/04 03:54:37;;;;;;;14;9.7;;;;;;;-0.36;80.82422;938.1883;;;;
2022/04/04 03:57:01;;;;;;;12.7;9.8;;;;;;;-0.44;81.03125;938.1761;;;;
2022/04/04 03:59:29;;;;;;;12.3;9.5;;;;;;;-0.46;81.89746;938.1284;;;;
2022/04/04 04:02:45;;;;;;;11.2;9;;;;;;;-0.45;81.97754;938.1694;;;;
2022/04/04 04:05:18;;;;;;;11.9;9.6;;;;;;;-0.41;81.59277;938.1814;;;;
2022/04/04 04:07:47;;;;;;;20.4;9.9;;;;;;;-0.66;81.89063;938.2008;;;;
2022/04/04 04:10:13;;;;;;;16;10.5;;;;;;;-0.82;82.08301;938.1956;;;;
2022/04/04 04:12:46;;;;;;;18;11.1;;;;;;;-1.05;83.08008;938.2136;;;;
2022/04/04 04:15:11;;;;;;;14.7;10;;;;;;;-0.98;83.18555;938.135;;;;
2022/04/04 04:17:37;;;;;;;13;10;;;;;;;-1.05;83.7041;938.199;;;;
2022/04/04 04:22:28;;;;;;;11.7;8.9;;;;;;;-1.02;83.56543;938.2114;;;;
2022/04/04 04:24:53;;;;;;;12;9.4;;;;;;;-1.08;83.3877;938.2594;;;;
2022/04/04 04:27:21;;;;;;;13.8;10.2;;;;;;;-1.03;83.33008;938.2971;;;;
2022/04/04 04:29:46;;;;;;;13;10.5;;;;;;;-1.09;83.74121;938.2595;;;;
2022/04/04 04:32:13;;;;;;;13.9;10.6;;;;;;;-1.03;83.44141;938.2695;;;;
2022/04/04 04:34:46;;;;;;;13.4;10.8;;;;;;;-1;83.55762;938.31;;;;
2022/04/04 04:37:07;;;;;;;13.2;10.7;;;;;;;-0.98;83.54102;938.3172;;;;
2022/04/04 04:39:35;;;;;;;12.7;10.4;;;;;;;-0.88;83.48242;938.3431;;;;
2022/04/04 04:42:01;;;;;;;11.9;10;;;;;;;-0.85;83.52148;938.3447;;;;
2022/04/04 04:44:25;;;;;;;13;10.2;;;;;;;;;;;;;
2022/04/04 04:46:52;;;;;;;12.6;10;;;;;;;;;;;;;
2022/04/04 04:49:16;;;;;;;13;10.4;;;;;;;;;;;;;
2022/04/04 04:51:41;;;;;;;13;9.9;;;;;;;;;;;;;
2022/04/04 04:54:06;;;;;;;12.2;10.3;;;;;;;;;;;;;
2022/04/04 04:56:31;;;;;;;12.9;10.1;;;;;;;;;;;;;
2022/04/04 04:58:56;;;;;;;12.6;10.2;;;;;;;;;;;;;
2022/04/04 05:01:22;;;;;;;13.9;11;;;;;;;;;;;;;
2022/04/04 05:03:49;;;;;;;14.3;12.1;;;;;;;;;;;;;
2022/04/04 05:06:14;;;;;;;15.1;12.1;;;;;;;;;;;;;
2022/04/04 05:08:39;;;;;;;14;11.5;;;;;;;;;;;;;
2022/04/04 05:11:05;;;;;;;16;12.6;;;;;;;;;;;;;
2022/04/04 05:13:30;;;;;;;15.9;12.6;;;;;;;;;;;;;
2022/04/04 05:15:56;;;;;;;13.9;11.7;;;;;;;;;;;;;
2022/04/04 05:18:21;;;;;;;16.8;12.2;;;;;;;;;;;;;
2022/04/04 05:20:48;;;;;;;14.4;11.9;;;;;;;;;;;;;
2022/04/04 05:23:13;;;;;;;14.9;12;;;;;;;;;;;;;
2022/04/04 05:25:38;;;;;;;14.4;12;;;;;;;;;;;;;
2022/04/04 05:28:03;;;;;;;14.5;10.3;;;;;;;;;;;;;
2022/04/04 05:30:29;;;;;;;16.6;11.2;;;;;;;;;;;;;
2022/04/04 05:32:55;;;;;;;14;11.1;;;;;;;;;;;;;
2022/04/04 05:35:19;;;;;;;12.5;10.5;;;;;;;;;;;;;
2022/04/04 05:37:45;;;;;;;14.5;11.1;;;;;;;;;;;;;
2022/04/04 05:40:11;;;;;;;12.9;10.1;;;;;;;;;;;;;
2022/04/04 05:42:36;;;;;;;13.4;10.1;;;;;;;;;;;;;
2022/04/04 05:45:02;;;;;;;15.9;11.4;;;;;;;;;;;;;
2022/04/04 05:47:27;;;;;;;16;10;;;;;;;;;;;;;
2022/04/04 05:49:53;;;;;;;12.2;9.6;;;;;;;;;;;;;
2022/04/04 05:52:18;;;;;;;13.9;9.6;;;;;;;;;;;;;
2022/04/04 05:54:57;;;;;;;13.4;8.9;;;;;;;;;;;;;
2022/04/04 05:57:10;;;;;;;11.4;8.7;;;;;;;;;;;;;
2022/04/04 05:59:35;;;;;;;10.9;7.8;;;;;;;;;;;;;
2022/04/04 06:02:00;;;;;;;9.6;7.8;;;;;;;;;;;;;
2022/04/04 06:04:28;;;;;;;10;7.7;;;;;;;;;;;;;
2022/04/04 06:06:53;;;;;;;10;7.1;;;;;;;;;;;;;
2022/04/04 06:09:18;;;;;;;9.9;7.3;;;;;;;;;;;;;
2022/04/04 06:11:43;;;;;;;10.6;7.2;;;;;;;;;;;;;
2022/04/04 06:14:10;;;;;;;7.9;6.5;;;;;;;;;;;;;
2022/04/04 06:16:35;;;;;;;7.8;6;;;;;;;;;;;;;
2022/04/04 06:19:01;;;;;;;7.3;5.8;;;;;;;;;;;;;
2022/04/04 06:21:27;;;;;;;6;5.4;;;;;;;;;;;;;
2022/04/04 06:23:52;;;;;;;7;5.4;;;;;;;;;;;;;
2022/04/04 06:26:17;;;;;;;8;6.4;;;;;;;;;;;;;
2022/04/04 06:28:43;;;;;;;6.6;5.9;;;;;;;;;;;;;
2022/04/04 06:31:10;;;;;;;6;5.4;;;;;;;;;;;;;
2022/04/04 06:33:35;;;;;;;7.5;5.8;;;;;;;;;;;;;
2022/04/04 06:36:00;;;;;;;7.5;6.2;;;;;;;;;;;;;
2022/04/04 06:38:27;;;;;;;6.5;5.5;;;;;;;;;;;;;
2022/04/04 06:40:52;;;;;;;6.8;5.4;;;;;;;;;;;;;
2022/04/04 06:43:19;;;;;;;8.7;6.1;;;;;;;;;;;;;
2022/04/04 06:45:44;;;;;;;11.5;6.9;;;;;;;;;;;;;
2022/04/04 06:48:09;;;;;;;9.3;6.5;;;;;;;;;;;;;
2022/04/04 06:50:35;;;;;;;7.5;6.1;;;;;;;;;;;;;
2022/04/04 06:53:02;;;;;;;8.3;6.2;;;;;;;;;;;;;
2022/04/04 06:55:28;;;;;;;8.1;6.2;;;;;;;;;;;;;
2022/04/04 06:57:53;;;;;;;7.4;6.5;;;;;;;;;;;;;
2022/04/04 07:00:18;;;;;;;8.6;7;;;;;;;;;;;;;
2022/04/04 07:02:46;;;;;;;8.9;6.9;;;;;;;;;;;;;
2022/04/04 07:05:11;;;;;;;7;6.3;;;;;;;;;;;;;
2022/04/04 07:07:37;;;;;;;9;6.8;;;;;;;;;;;;;
2022/04/04 07:10:03;;;;;;;7.8;6.9;;;;;;;;;;;;;
2022/04/04 07:12:29;;;;;;;9;7.2;;;;;;;;;;;;;
2022/04/04 07:14:54;;;;;;;9.5;7;;;;;;;;;;;;;
2022/04/04 07:17:22;;;;;;;7.9;6.9;;;;;;;;;;;;;
2022/04/04 07:19:46;;;;;;;8.1;6.9;;;;;;;;;;;;;
2022/04/04 07:22:14;;;;;;;9.6;7.1;;;;;;;;;;;;;
2022/04/04 07:24:37;;;;;;;9.8;7.3;;;;;;;;;;;;;
2022/04/04 07:27:03;;;;;;;11.5;7.3;;;;;;;;;;;;;
2022/04/04 07:29:29;;;;;;;9.2;6.8;;;;;;;;;;;;;
2022/04/04 07:31:55;;;;;;;7.6;6.8;;;;;;;;;;;;;
2022/04/04 07:34:20;;;;;;;11.6;7.3;;;;;;;;;;;;;
2022/04/04 07:36:48;;;;;;;8;7.2;;;;;;;;;;;;;
2022/04/04 07:39:12;;;;;;;8;6.7;;;;;;;;;;;;;
2022/04/04 07:41:39;;;;;;;8.7;7;;;;;;;;;;;;;
2022/04/04 07:44:05;;;;;;;8;6.9;;;;;;;;;;;;;
2022/04/04 07:46:31;;;;;;;10.4;6.8;;;;;;;;;;;;;
2022/04/04 07:48:57;;;;;;;9.7;6.8;;;;;;;;;;;;;
2022/04/04 07:51:22;;;;;;;8.2;6.7;;;;;;;;;;;;;
2022/04/04 07:53:48;;;;;;;9.6;7;;;;;;;;;;;;;
2022/04/04 07:56:14;;;;;;;8;6.8;;;;;;;;;;;;;
2022/04/04 07:58:39;;;;;;;7.6;6.8;;;;;;;;;;;;;
2022/04/04 08:01:05;;;;;;;7.2;6.5;;;;;;;;;;;;;
2022/04/04 08:03:30;;;;;;;6.7;6.1;;;;;;;;;;;;;
2022/04/04 08:05:56;;;;;;;8.8;6.6;;;;;;;;;;;;;
2022/04/04 08:08:21;;;;;;;10.1;6.8;;;;;;;;;;;;;
2022/04/04 08:10:47;;;;;;;10.7;6.9;;;;;;;;;;;;;
2022/04/04 08:13:12;;;;;;;10.4;7.2;;;;;;;;;;;;;
2022/04/04 08:15:39;;;;;;;8.3;6.3;;;;;;;;;;;;;
2022/04/04 08:18:04;;;;;;;8.3;6.7;;;;;;;;;;;;;
2022/04/04 08:20:30;;;;;;;7.2;6.2;;;;;;;;;;;;;
2022/04/04 08:22:55;;;;;;;9.2;6.4;;;;;;;;;;;;;
2022/04/04 08:25:21;;;;;;;7.4;6.5;;;;;;;;;;;;;
2022/04/04 08:27:46;;;;;;;6.5;5.8;;;;;;;;;;;;;
2022/04/04 08:30:12;;;;;;;7.8;6.4;;;;;;;;;;;;;
2022/04/04 08:32:38;;;;;;;6.9;6;;;;;;;;;;;;;
2022/04/04 08:35:04;;;;;;;7.1;5.8;;;;;;;;;;;;;
2022/04/04 08:37:29;;;;;;;8.9;5.8;;;;;;;;;;;;;
2022/04/04 08:39:54;;;;;;;7;5.8;;;;;;;;;;;;;
2022/04/04 08:42:26;;;;;;;7.5;6.8;;;;;;;;;;;;;
2022/04/04 08:44:45;;;;;;;12.5;7.4;;;;;;;;;;;;;
2022/04/04 08:47:10;;;;;;;7.6;6.7;;;;;;;;;;;;;
2022/04/04 08:49:35;;;;;;;9.1;7.1;;;;;;;;;;;;;
2022/04/04 08:52:01;;;;;;;9.3;7.3;;;;;;;;;;;;;
2022/04/04 08:54:26;;;;;;;11;7.3;;;;;;;;;;;;;
2022/04/04 08:56:51;;;;;;;9.1;7.7;;;;;;;;;;;;;
2022/04/04 08:59:17;;;;;;;14;8.2;;;;;;;;;;;;;
2022/04/04 09:01:44;;;;;;;9.2;7.7;;;;;;;;;;;;;
2022/04/04 09:04:09;;;;;;;9.1;7.7;;;;;;;;;;;;;
2022/04/04 09:06:34;;;;;;;11.3;7.3;;;;;;;;;;;;;
2022/04/04 09:08:59;;;;;;;9.4;6.9;;;;;;;;;;;;;
2022/04/04 09:11:25;;;;;;;7.9;6.8;;;;;;;;;;;;;
2022/04/04 09:13:50;;;;;;;11.8;7.3;;;;;;;;;;;;;
2022/04/04 09:16:16;;;;;;;9.4;6.6;;;;;;;;;;;;;
2022/04/04 09:18:42;;;;;;;7.6;6.7;;;;;;;;;;;;;
2022/04/04 09:21:07;;;;;;;7.4;6.6;;;;;;;;;;;;;
2022/04/04 09:23:33;;;;;;;7.1;6.4;;;;;;;;;;;;;
2022/04/04 09:26:00;;;;;;;7.6;6.3;;;;;;;;;;;;;
2022/04/04 09:28:24;;;;;;;8.7;6.6;;;;;;;;;;;;;
2022/04/04 09:30:51;;;;;;;7.5;6.7;;;;;;;;;;;;;
2022/04/04 09:33:16;;;;;;;6.5;5.5;;;;;;;;;;;;;
2022/04/04 09:35:43;;;;;;;6.1;5.4;;;;;;;;;;;;;
2022/04/04 09:38:08;;;;;;;7.2;5.5;;;;;;;;;;;;;
2022/04/04 09:40:36;;;;;;;6.9;5.5;;;;;;;;;;;;;
2022/04/04 09:43:01;;;;;;;10.3;6.3;;;;;;;;;;;;;
2022/04/04 09:45:26;;;;;;;5.7;5.1;;;;;;;;;;;;;
2022/04/04 09:47:51;;;;;;;5.6;5.1;;;;;;;;;;;;;
2022/04/04 09:50:19;;;;;;;8.2;5.6;;;;;;;;;;;;;
2022/04/04 09:52:44;;;;;;;10.3;5.6;;;;;;;;;;;;;
2022/04/04 09:55:10;;;;;;;7.1;5.5;;;;;;;;;;;;;
2022/04/04 09:57:35;;;;;;;6.1;5.5;;;;;;;;;;;;;
2022/04/04 10:00:00;;;;;;;5.8;5.2;;;;;;;;;;;;;
2022/04/04 10:02:25;;;;;;;6;5.4;;;;;;;;;;;;;
2022/04/04 10:04:54;;;;;;;5.5;5;;;;;;;;;;;;;
2022/04/04 10:07:18;;;;;;;6.2;4.8;;;;;;;;;;;;;
2022/04/04 10:09:42;;;;;;;5.4;4.9;;;;;;;;;;;;;
2022/04/04 10:12:07;;;;;;;4.9;4.5;;;;;;;;;;;;;
2022/04/04 10:14:34;;;;;;;5.2;4.7;;;;;;;;;;;;;
2022/04/04 10:16:59;;;;;;;5.3;4.8;;;;;;;;;;;;;
2022/04/04 10:19:27;;;;;;;5.6;5;;;;;;;;;;;;;
2022/04/04 10:21:52;;;;;;;5.3;4.8;;;;;;;;;;;;;
2022/04/04 10:24:18;;;;;;;5.2;4.7;;;;;;;;;;;;;
2022/04/04 10:26:42;;;;;;;7.7;6.2;;;;;;;;;;;;;
2022/04/04 10:29:07;;;;;;;6.2;5.6;;;;;;;;;;;;;
2022/04/04 10:31:32;;;;;;;6;5.4;;;;;;;;;;;;;
2022/04/04 10:33:59;;;;;;;6.4;5.7;;;;;;;;;;;;;
2022/04/04 10:36:24;;;;;;;7.7;6.9;;;;;;;;;;;;;
2022/04/04 10:38:50;;;;;;;8.9;6.3;;;;;;;;;;;;;
2022/04/04 10:41:15;;;;;;;8.1;6.9;;;;;;;;;;;;;
2022/04/04 10:43:42;;;;;;;7.5;6.7;;;;;;;;;;;;;
2022/04/04 10:46:06;;;;;;;10.6;7.1;;;;;;;;;;;;;
2022/04/04 10:48:31;;;;;;;8;7.2;;;;;;;;;;;;;
2022/04/04 10:50:56;;;;;;;8.2;6.5;;;;;;;;;;;;;
2022/04/04 10:53:23;;;;;;;8.5;6.7;;;;;;;;;;;;;
2022/04/04 10:55:53;;;;;;;8.5;6.6;;;;;;;;;;;;;
2022/04/04 10:58:15;;;;;;;7.7;6.4;;;;;;;;;;;;;
2022/04/04 11:00:40;;;;;;;7.7;6.3;;;;;;;;;;;;;
2022/04/04 11:03:04;;;;;;;7.4;6.5;;;;;;;;;;;;;
2022/04/04 11:07:54;;;;;;;7.2;6.5;;;;;;;;;;;;;
2022/04/04 11:10:23;;;;;;;7.4;6.7;;;;;;;;;;;;;
2022/04/04 11:12:44;;;;;;;7.3;6.6;;;;;;;;;;;;;
2022/04/04 11:15:10;;;;;;;8.2;6.9;;;;;;;;;;;;;
2022/04/04 11:17:36;;;;;;;8;7.2;;;;;;;;;;;;;
2022/04/04 11:20:04;;;;;;;7.7;6.9;;;;;;;;;;;;;
2022/04/04 11:22:26;;;;;;;8.1;7.3;;;;;;;;;;;;;
2022/04/04 11:24:52;;;;;;;8;7.1;;;;;;;;;;;;;
2022/04/04 11:27:17;;;;;;;7.5;6.8;;;;;;;;;;;;;
2022/04/04 11:29:43;;;;;;;8.1;6.8;;;;;;;;;;;;;
2022/04/04 11:32:15;;;;;;;7.3;6.4;;;;;;;;;;;;;
2022/04/04 11:34:34;;;;;;;7.9;6.9;;;;;;;;;;;;;
2022/04/04 11:37:00;;;;;;;7.6;6.8;;;;;;;;;;;;;
2022/04/04 11:39:25;;;;;;;8.2;7.2;;;;;;;;;;;;;
2022/04/04 11:41:50;;;;;;;8.5;7;;;;;;;;;;;;;
2022/04/04 11:44:16;;;;;;;7.9;7.1;;;;;;;;;;;;;
2022/04/04 11:46:42;;;;;;;7.8;7;;;;;;;;;;;;;
2022/04/04 11:49:09;;;;;;;8.2;7.4;;;;;;;;;;;;;
2022/04/04 11:51:35;;;;;;;7.3;6.6;;;;;;;;;;;;;
2022/04/04 11:53:59;;;;;;;7.9;7;;;;;;;;;;;;;
2022/04/04 11:56:25;;;;;;;8;7.2;;;;;;;;;;;;;
2022/04/04 11:58:51;;;;;;;8.3;6.8;;;;;;;;;;;;;
2022/04/04 12:01:16;;;;;;;7.2;6.5;;;;;;;;;;;;;
2022/04/04 12:03:49;;;;;;;7.5;6.8;;;;;;;;;;;;;
2022/04/04 12:06:07;;;;;;;7.6;6.8;;;;;;;;;;;;;
2022/04/04 12:08:32;;;;;;;8.3;7.1;;;;;;;;;;;;;
2022/04/04 12:10:57;;;;;;;7.4;6.6;;;;;;;;;;;;;
2022/04/04 12:13:23;;;;;;;7.7;6.9;;;;;;;;;;;;;
2022/04/04 12:15:48;;;;;;;8.9;7.1;;;;;;;;;;;;;
2022/04/04 12:18:14;;;;;;;6.9;6.2;;;;;;;;;;;;;
2022/04/04 12:20:40;;;;;;;7.4;6.5;;;;;;;;;;;;;
2022/04/04 12:25:31;;;;;;;7.4;6.6;;;;;;;;;;;;;
2022/04/04 12:27:57;;;;;;;7.3;6.5;;;;;;;;;;;;;
2022/04/04 12:30:22;;;;;;;7.6;6.8;;;;;;;;;;;;;
2022/04/04 12:32:48;;;;;;;7.4;6.6;;;;;;;;;;;;;
2022/04/04 12:35:13;;;;;;;7.6;6.8;;;;;;;;;;;;;
2022/04/04 12:37:40;;;;;;;7.5;6.7;;;;;;;;;;;;;
2022/04/04 12:40:05;;;;;;;7.4;6.5;;;;;;;;;;;;;
2022/04/04 12:42:32;;;;;;;7.4;6.4;;;;;;;;;;;;;
2022/04/04 12:44:58;;;;;;;7;6.3;;;;;;;;;;;;;
2022/04/04 12:47:23;;;;;;;7.5;6.7;;;;;;;;;;;;;
2022/04/04 12:49:48;;;;;;;7.5;6.5;;;;;;;;;;;;;
2022/04/04 12:52:13;;;;;;;7.4;6.6;;;;;;;;;;;;;
2022/04/04 12:54:39;;;;;;;7.8;6.8;;;;;;;;;;;;;
2022/04/04 12:57:03;;;;;;;7.8;6.7;;;;;;;;;;;;;
2022/04/04 12:59:30;;;;;;;7.7;6.7;;;;;;;;;;;;;
2022/04/04 13:01:56;;;;;;;7.2;6.4;;;;;;;;;;;;;
2022/04/04 13:04:21;;;;;;;6.9;6.2;;;;;;;;;;;;;
2022/04/04 13:06:46;;;;;;;7;6.3;;;;;;;;;;;;;
2022/04/04 13:09:11;;;;;;;7.8;7;;;;;;;;;;;;;
2022/04/04 13:11:37;;;;;;;7.5;6.7;;;;;;;;;;;;;
2022/04/04 13:14:04;;;;;;;8.1;6.3;;;;;;;;;;;;;
2022/04/04 13:16:27;;;;;;;7.8;7;;;;;;;;;;;;;
2022/04/04 13:18:53;;;;;;;9.3;6.5;;;;;;;;;;;;;
2022/04/04 13:21:17;;;;;;;7.8;6.9;;;;;;;;;;;;;
2022/04/04 13:23:43;;;;;;;7.5;6.5;;;;;;;;;;;;;
2022/04/04 13:26:08;;;;;;;6.9;6.2;;;;;;;;;;;;;
2022/04/04 13:28:35;;;;;;;7.4;5.9;;;;;;;;;;;;;
2022/04/04 13:31:02;;;;;;;6.9;5.9;;;;;;;;;;;;;
2022/04/04 13:33:27;;;;;;;9;6.3;;;;;;;;;;;;;
2022/04/04 13:35:52;;;;;;;6.9;6.2;;;;;;;;;;;;;
2022/04/04 13:38:17;;;;;;;7.3;6.5;;;;;;;;;;;;;
2022/04/04 13:40:42;;;;;;;7.7;6.6;;;;;;;;;;;;;
2022/04/04 13:43:26;;;;;;;7.1;6.4;;;;;;;;;;;;;
2022/04/04 13:45:51;;;;;;;8.3;6.6;;;;;;;;;;;;;
2022/04/04 13:48:18;;;;;;;7.1;5.9;;;;;;;;;;;;;
2022/04/04 13:50:43;;;;;;;7.2;6.5;;;;;;;;;;;;;
2022/04/04 13:53:08;;;;;;;7.4;6.6;;;;;;;;;;;;;
2022/04/04 13:55:34;;;;;;;7.2;6.5;;;;;;;;;;;;;
2022/04/04 13:57:59;;;;;;;7.6;6.8;;;;;;;;;;;;;
2022/04/04 14:00:27;;;;;;;7.4;6.7;;;;;;;;;;;;;
2022/04/04 14:02:52;;;;;;;8;7.2;;;;;;;;;;;;;
2022/04/04 14:05:17;;;;;;;7.9;7.1;;;;;;;;;;;;;
2022/04/04 14:07:43;;;;;;;8.3;7.4;;;;;;;;;;;;;
2022/04/04 14:10:08;;;;;;;8.7;7.3;;;;;;;;;;;;;
2022/04/04 14:12:35;;;;;;;9.2;7.4;;;;;;;;;;;;;
2022/04/04 14:15:00;;;;;;;9.2;7.4;;;;;;;;;;;;;
2022/04/04 14:17:26;;;;;;;8.5;7.5;;;;;;;;;;;;;
2022/04/04 14:19:52;;;;;;;8.2;7;;;;;;;;;;;;;
2022/04/04 14:22:17;;;;;;;8.2;7.3;;;;;;;;;;;;;
2022/04/04 14:24:43;;;;;;;8.9;8;;;;;;;;;;;;;
2022/04/04 14:27:08;;;;;;;8.6;7.7;;;;;;;;;;;;;
2022/04/04 14:29:35;;;;;;;9.3;8.1;;;;;;;;;;;;;
2022/04/04 14:32:00;;;;;;;8.8;7.8;;;;;;;;;;;;;
2022/04/04 14:34:27;;;;;;;8.9;8;;;;;;;;;;;;;
2022/04/04 14:36:52;;;;;;;8.3;7.5;;;;;;;;;;;;;
2022/04/04 14:39:17;;;;;;;10.4;8.5;;;;;;;;;;;;;
2022/04/04 14:41:42;;;;;;;8.2;7;;;;;;;;;;;;;
2022/04/04 14:44:08;;;;;;;8.7;7.5;;;;;;;;;;;;;
2022/04/04 14:46:34;;;;;;;9.4;8;;;;;;;;;;;;;
2022/04/04 14:48:59;;;;;;;9;7.2;;;;;;;;;;;;;
2022/04/04 14:51:24;;;;;;;9.5;7.9;;;;;;;;;;;;;
2022/04/04 14:53:50;;;;;;;9;7.7;;;;;;;;;;;;;
2022/04/04 14:56:15;;;;;;;8.4;7.5;;;;;;;;;;;;;
2022/04/04 14:58:42;;;;;;;8.9;7.7;;;;;;;;;;;;;
2022/04/04 15:01:09;;;;;;;9.3;8.1;;;;;;;;;;;;;
2022/04/04 15:03:32;;;;;;;9.8;7.8;;;;;;;;;;;;;
2022/04/04 15:05:57;;;;;;;10.4;7.9;;;;;;;;;;;;;
2022/04/04 15:08:24;;;;;;;9.4;8.1;;;;;;;;;;;;;
2022/04/04 15:10:48;;;;;;;8.7;7.7;;;;;;;;;;;;;
2022/04/04 15:13:14;;;;;;;9.1;7.7;;;;;;;;;;;;;
2022/04/04 15:15:41;;;;;;;9.8;7.8;;;;;;;;;;;;;
2022/04/04 15:18:06;;;;;;;8.8;7.7;;;;;;;;;;;;;
2022/04/04 15:20:32;;;;;;;9;7.6;;;;;;;;;;;;;
2022/04/04 15:22:57;;;;;;;8.2;7.3;;;;;;;;;;;;;
2022/04/04 15:25:24;;;;;;;10.2;8.3;;;;;;;;;;;;;
2022/04/04 15:27:49;;;;;;;9.5;8;;;;;;;;;;;;;
2022/04/04 15:30:17;;;;;;;9.7;7.9;;;;;;;;;;;;;
2022/04/04 15:32:41;;;;;;;9.9;8.4;;;;;;;;;;;;;
2022/04/04 15:35:09;;;;;;;8.4;7.6;;;;;;;;;;;;;
2022/04/04 15:37:34;;;;;;;9.7;8.6;;;;;;;;;;;;;
2022/04/04 15:40:01;;;;;;;11.9;9;;;;;;;;;;;;;
2022/04/04 15:42:26;;;;;;;9.5;8.1;;;;;;;;;;;;;
2022/04/04 15:44:53;;;;;;;9.2;7.4;;;;;;;;;;;;;
2022/04/04 15:47:17;;;;;;;10;8.4;;;;;;;;;;;;;
2022/04/04 15:49:42;;;;;;;9.1;8.1;;;;;;;;;;;;;
2022/04/04 15:52:09;;;;;;;9.9;8.4;;;;;;;;;;;;;
2022/04/04 15:54:34;;;;;;;12.4;9.9;;;;;;;;;;;;;
2022/04/04 15:57:00;;;;;;;9.5;8.1;;;;;;;;;;;;;
2022/04/04 15:59:25;;;;;;;12.7;10.6;;;;;;;;;;;;;
2022/04/04 16:01:50;;;;;;;19.2;14.3;;;;;;;;;;;;;
2022/04/04 16:04:17;;;;;;;14.8;11.8;;;;;;;;;;;;;
2022/04/04 16:06:41;;;;;;;13.2;11;;;;;;;;;;;;;
2022/04/04 16:09:08;;;;;;;19;14.4;;;;;;;;;;;;;
2022/04/04 16:11:35;;;;;;;14.9;12.2;;;;;;;;;;;;;
2022/04/04 16:14:01;;;;;;;13.7;10.3;;;;;;;;;;;;;
2022/04/04 16:16:27;;;;;;;10.1;7.9;;;;;;;;;;;;;
2022/04/04 16:18:53;;;;;;;11.4;8.9;;;;;;;;;;;;;
2022/04/04 16:21:19;;;;;;;11.9;8.4;;;;;;;;;;;;;
2022/04/04 16:23:44;;;;;;;10.7;8.4;;;;;;;;;;;;;
2022/04/04 16:26:09;;;;;;;8.5;7.5;;;;;;;;;;;;;
2022/04/04 16:28:35;;;;;;;10.7;8.5;;;;;;;;;;;;;
2022/04/04 16:31:00;;;;;;;8.4;7;;;;;;;;;;;;;
2022/04/04 16:33:28;;;;;;;9.3;7.9;;;;;;;;;;;;;
2022/04/04 16:35:53;;;;;;;8.8;7.9;;;;;;;;;;;;;
2022/04/04 16:38:20;;;;;;;33;23.6;;;;;;;;;;;;;
2022/04/04 16:40:45;;;;;;;12.6;8.6;;;;;;;;;;;;;
2022/04/04 16:43:11;;;;;;;8.3;7;;;;;;;;;;;;;
2022/04/04 16:45:36;;;;;;;9;7;;;;;;;;;;;;;
2022/04/04 16:48:02;;;;;;;10.1;8.2;;;;;;;;;;;;;
2022/04/04 16:50:27;;;;;;;8.1;6.7;;;;;;;;;;;;;
2022/04/04 16:52:53;;;;;;;8.9;7;;;;;;;;;;;;;
2022/04/04 16:55:18;;;;;;;22.4;16.7;;;;;;;;;;;;;
2022/04/04 16:57:45;;;;;;;16.5;12;;;;;;;;;;;;;
2022/04/04 17:00:10;;;;;;;11.3;8.5;;;;;;;;;;;;;
2022/04/04 17:02:36;;;;;;;9.1;6.3;;;;;;;;;;;;;
2022/04/04 17:05:03;;;;;;;16.4;8.9;;;;;;;;;;;;;
2022/04/04 17:07:26;;;;;;;8.9;6.2;;;;;;;;;;;;;
2022/04/04 17:09:50;;;;;;;9.2;7.3;;;;;;;;;;;;;
2022/04/04 17:12:15;;;;;;;8;6;;;;;;;;;;;;;
2022/04/04 17:14:41;;;;;;;7.6;6.1;;;;;;;;;;;;;
2022/04/04 17:17:06;;;;;;;6.8;6;;;;;;;;;;;;;
2022/04/04 17:19:32;;;;;;;9.3;7.5;;;;;;;;;;;;;
2022/04/04 17:21:57;;;;;;;8.7;6.8;;;;;;;;;;;;;
2022/04/04 17:24:23;;;;;;;11.3;7.1;;;;;;;;;;;;;
2022/04/04 17:26:48;;;;;;;11.7;8.9;;;;;;;;;;;;;
2022/04/04 17:29:14;;;;;;;11.8;8;;;;;;;;;;;;;
2022/04/04 17:31:39;;;;;;;29.1;15.7;;;;;;;;;;;;;
2022/04/04 17:34:05;;;;;;;28.3;15.9;;;;;;;;;;;;;
2022/04/04 17:36:30;;;;;;;22.7;13.5;;;;;;;;;;;;;
2022/04/04 17:38:58;;;;;;;12.4;8.7;;;;;;;;;;;;;
2022/04/04 17:41:20;;;;;;;9.8;7.5;;;;;;;;;;;;;
2022/04/04 17:43:45;;;;;;;11.4;8;;;;;;;;;;;;;
2022/04/04 17:46:10;;;;;;;7.6;5.9;;;;;;;;;;;;;
2022/04/04 17:48:37;;;;;;;10.7;6.6;;;;;;;;;;;;;
2022/04/04 17:51:02;;;;;;;12.5;11;;;;;;;;;;;;;
2022/04/04 17:53:27;;;;;;;12.2;9.5;;;;;;;;;;;;;
2022/04/04 17:55:52;;;;;;;8.7;7.6;;;;;;;;;;;;;
2022/04/04 17:58:18;;;;;;;15.8;14.2;;;;;;;;;;;;;
2022/04/04 18:00:43;;;;;;;11.1;9.6;;;;;;;;;;;;;
2022/04/04 18:03:13;;;;;;;10.6;8.7;;;;;;;;;;;;;
2022/04/04 18:05:36;;;;;;;11.1;8.8;;;;;;;;;;;;;
2022/04/04 18:08:02;;;;;;;10.5;8.6;;;;;;;;;;;;;
2022/04/04 18:10:27;;;;;;;11.1;9.6;;;;;;;;;;;;;
2022/04/04 18:12:53;;;;;;;11.6;8.5;;;;;;;;;;;;;
2022/04/04 18:15:18;;;;;;;19.8;14.3;;;;;;;;;;;;;
2022/04/04 18:17:44;;;;;;;20.9;13.9;;;;;;;;;;;;;
2022/04/04 18:20:09;;;;;;;11.7;8.7;;;;;;;;;;;;;
2022/04/04 18:22:36;;;;;;;10.1;7.3;;;;;;;;;;;;;
2022/04/04 18:25:01;;;;;;;9.3;7;;;;;;;;;;;;;
2022/04/04 18:27:26;;;;;;;9.5;7.4;;;;;;;;;;;;;
2022/04/04 18:29:51;;;;;;;10.2;7.8;;;;;;;;;;;;;
2022/04/04 18:32:20;;;;;;;10.6;7.9;;;;;;;;;;;;;
2022/04/04 18:34:42;;;;;;;13.5;9.6;;;;;;;;;;;;;
2022/04/04 18:37:09;;;;;;;12.7;9;;;;;;;;;;;;;
2022/04/04 18:39:34;;;;;;;24.2;18;;;;;;;;;;;;;
2022/04/04 18:42:00;;;;;;;17;14.2;;;;;;;;;;;;;
2022/04/04 18:44:27;;;;;;;10.5;7.5;;;;;;;;;;;;;